Time;durP1;ratioP1;P1;durP2;ratioP2;P2;SDS_P1;SDS_P2;PMS_P1;PMS_P2;Temp;Humidity;BMP_temperature;BMP_pressure;BME280_temperature;BME280_humidity;BME280_pressure;Samples;Min_cycle;Max_cycle;Signal;HPM_P1;HPM_P2
2023/01/14 00:01:27;;;;;;;21.45;2.85;;;7.30;99.90;;;;;;5110074;27;20175;-80
2023/01/14 00:03:53;;;;;;;28.15;4.70;;;7.20;99.90;;;;;;5092220;27;20051;-80
2023/01/14 00:06:21;;;;;;;16.67;4.82;;;7.30;99.90;;;;;;5111944;27;20047;-80
2023/01/14 00:08:52;;;;;;;25.98;2.95;;;7.20;99.90;;;;;;5131204;27;20055;-80
2023/01/14 00:11:45;;;;;;;16.30;2.35;;;8.30;99.90;;;;;;5097483;27;20046;-80
2023/01/14 00:14:06;;;;;;;23.13;2.70;;;7.10;99.90;;;;;;5109935;27;20044;-80
2023/01/14 00:16:32;;;;;;;28.88;4.45;;;8.00;99.90;;;;;;5095952;27;20095;-80
2023/01/14 00:18:57;;;;;;;15.90;3.08;;;7.20;99.90;;;;;;5093361;27;20378;-80
2023/01/14 00:21:23;;;;;;;23.85;2.95;;;7.20;99.90;;;;;;5095196;27;20042;-80
2023/01/14 00:23:53;;;;;;;31.55;2.78;;;7.20;99.90;;;;;;5094649;27;20102;-80
2023/01/14 00:26:19;;;;;;;27.48;3.35;;;7.20;99.90;;;;;;5110250;27;20074;-79
2023/01/14 00:28:49;;;;;;;21.15;2.53;;;7.80;99.90;;;;;;5095247;27;20074;-79
2023/01/14 00:31:21;;;;;;;24.60;3.22;;;7.20;99.90;;;;;;5127620;27;20043;-80
2023/01/14 00:33:47;;;;;;;19.52;2.80;;;7.30;99.90;;;;;;5111985;27;20511;-79
2023/01/14 00:36:17;;;;;;;12.50;1.85;;;7.20;99.90;;;;;;5110471;27;20043;-79
2023/01/14 00:38:43;;;;;;;20.27;2.90;;;7.20;99.90;;;;;;5110879;27;20092;-79
2023/01/14 00:41:17;;;;;;;24.35;2.83;;;7.10;99.90;;;;;;5111413;27;20096;-79
2023/01/14 00:43:48;;;;;;;15.18;2.95;;;7.10;99.90;;;;;;5075126;27;20043;-79
2023/01/14 00:46:19;;;;;;;18.98;2.25;;;7.10;99.90;;;;;;5094764;27;20049;-80
2023/01/14 00:48:45;;;;;;;24.20;5.28;;;7.10;99.90;;;;;;5108993;27;20074;-79
2023/01/14 00:51:12;;;;;;;26.20;3.20;;;7.10;99.90;;;;;;5111572;27;20735;-79
2023/01/14 00:53:39;;;;;;;34.45;3.97;;;7.90;99.90;;;;;;5094170;27;20051;-79
2023/01/14 00:56:09;;;;;;;17.85;2.45;;;7.10;99.90;;;;;;5089119;28;20052;-79
2023/01/14 00:58:34;;;;;;;18.25;2.70;;;6.60;99.90;;;;;;5108340;28;20055;-79
2023/01/14 01:01:01;;;;;;;25.48;3.17;;;8.00;99.90;;;;;;5105512;28;20046;-78
2023/01/14 01:03:26;;;;;;;16.17;2.20;;;7.00;99.90;;;;;;5108003;28;20035;-79
2023/01/14 01:05:53;;;;;;;21.17;2.70;;;7.00;99.90;;;;;;5088729;28;20421;-79
2023/01/14 01:08:20;;;;;;;23.38;3.55;;;7.50;99.90;;;;;;5107970;28;20127;-79
2023/01/14 01:10:48;;;;;;;16.13;3.10;;;7.00;99.90;;;;;;5107342;28;20479;-79
2023/01/14 01:13:14;;;;;;;24.38;3.92;;;7.10;99.90;;;;;;5106125;28;20058;-79
2023/01/14 01:15:41;;;;;;;15.23;2.70;;;7.00;99.90;;;;;;5074373;28;20040;-79
2023/01/14 01:18:08;;;;;;;26.45;2.22;;;8.30;99.90;;;;;;5105466;28;20043;-79
2023/01/14 01:20:34;;;;;;;37.78;3.00;;;7.10;99.90;;;;;;5090826;28;20054;-79
2023/01/14 01:23:00;;;;;;;22.42;2.47;;;7.60;99.90;;;;;;5105003;28;20044;-79
2023/01/14 01:25:26;;;;;;;22.52;2.10;;;7.10;99.90;;;;;;5090614;28;20548;-79
2023/01/14 01:27:54;;;;;;;18.25;2.63;;;7.20;99.90;;;;;;5106893;28;20044;-78
2023/01/14 01:30:20;;;;;;;18.42;2.33;;;7.20;99.90;;;;;;5073116;28;20104;-79
2023/01/14 01:32:46;;;;;;;18.73;2.40;;;7.20;99.90;;;;;;5108035;28;20048;-79
2023/01/14 01:35:12;;;;;;;29.50;4.40;;;7.20;99.90;;;;;;5087825;28;20398;-79
2023/01/14 01:37:37;;;;;;;16.08;2.15;;;7.20;99.90;;;;;;5107879;28;20441;-79
2023/01/14 01:40:04;;;;;;;14.40;2.15;;;8.00;99.90;;;;;;5087732;28;20471;-79
2023/01/14 01:42:33;;;;;;;16.20;2.70;;;7.20;99.90;;;;;;5107216;28;20047;-79
2023/01/14 01:45:28;;;;;;;27.38;3.08;;;7.70;99.90;;;;;;5106380;28;20051;-79
2023/01/14 01:48:02;;;;;;;15.82;2.08;;;7.20;99.90;;;;;;5101890;28;20047;-79
2023/01/14 01:50:29;;;;;;;18.23;2.45;;;7.20;99.90;;;;;;5090817;28;20471;-79
2023/01/14 01:52:55;;;;;;;14.48;1.67;;;7.20;99.90;;;;;;5087756;28;20054;-79
2023/01/14 01:55:21;;;;;;;22.15;2.75;;;7.20;99.90;;;;;;5073104;28;20131;-79
2023/01/14 01:57:55;;;;;;;16.92;2.13;;;7.30;99.90;;;;;;5106363;28;20071;-79
2023/01/14 02:00:25;;;;;;;23.35;3.15;;;7.30;99.90;;;;;;5089279;28;20048;-79
2023/01/14 02:03:08;;;;;;;33.80;3.33;;;7.30;99.90;;;;;;5090506;28;20408;-79
2023/01/14 02:05:34;;;;;;;27.92;3.00;;;7.20;99.90;;;;;;5104510;28;20101;-79
2023/01/14 02:08:00;;;;;;;28.30;3.28;;;7.30;99.90;;;;;;5056820;28;20075;-79
2023/01/14 02:10:42;;;;;;;19.73;3.03;;;7.30;99.90;;;;;;5105570;28;20055;-79
2023/01/14 02:13:25;;;;;;;17.70;2.45;;;7.20;99.90;;;;;;5088753;28;20047;-79
2023/01/14 02:16:14;;;;;;;24.15;3.85;;;7.20;99.90;;;;;;5109765;28;20089;-79
2023/01/14 02:19:14;;;;;;;13.98;2.20;;;7.00;99.90;;;;;;5109515;28;20079;-78
2023/01/14 02:21:47;;;;;;;25.70;2.20;;;7.00;99.90;;;;;;5092854;28;20050;-79
2023/01/14 02:24:36;;;;;;;22.02;3.15;;;7.90;99.90;;;;;;5111254;28;20078;-79
2023/01/14 02:27:11;;;;;;;19.42;3.00;;;6.90;99.90;;;;;;5108460;28;20059;-79
2023/01/14 02:29:52;;;;;;;21.30;3.83;;;6.90;99.90;;;;;;5093758;28;20039;-79
2023/01/14 02:32:32;;;;;;;20.90;2.50;;;6.80;99.90;;;;;;5110125;28;20093;-79
2023/01/14 02:35:26;;;;;;;17.55;3.60;;;6.80;99.90;;;;;;5091215;28;20078;-79
2023/01/14 02:38:01;;;;;;;20.10;2.65;;;6.80;99.90;;;;;;5093859;28;20108;-79
2023/01/14 02:40:32;;;;;;;24.05;3.60;;;6.80;99.90;;;;;;5091961;28;20075;-79
2023/01/14 02:46:18;;;;;;;18.60;2.97;;;6.80;99.90;;;;;;5110721;28;20054;-80
2023/01/14 02:48:45;;;;;;;20.83;3.38;;;6.80;99.90;;;;;;5108588;28;20499;-80
2023/01/14 02:51:12;;;;;;;20.42;3.10;;;6.70;99.90;;;;;;5093541;28;20051;-80
2023/01/14 02:53:38;;;;;;;20.83;2.65;;;6.70;99.90;;;;;;5111013;28;20088;-78
2023/01/14 02:56:05;;;;;;;15.02;2.53;;;7.00;99.90;;;;;;5091831;28;20110;-79
2023/01/14 02:58:31;;;;;;;29.48;3.40;;;6.60;99.90;;;;;;5093798;28;20036;-79
2023/01/14 03:01:12;;;;;;;17.90;3.33;;;6.60;99.90;;;;;;5107870;28;20036;-80
2023/01/14 03:04:00;;;;;;;19.35;3.65;;;6.10;99.90;;;;;;5093288;28;20104;-80
2023/01/14 03:06:35;;;;;;;27.55;3.53;;;6.60;99.90;;;;;;5092127;28;20106;-80
2023/01/14 03:09:13;;;;;;;23.23;4.55;;;6.60;99.90;;;;;;5108766;28;20040;-80
2023/01/14 03:12:24;;;;;;;14.35;1.80;;;6.60;99.90;;;;;;5110366;28;20525;-80
2023/01/14 03:15:01;;;;;;;16.40;2.22;;;6.60;99.90;;;;;;4993748;28;20045;-80
2023/01/14 03:17:49;;;;;;;15.15;2.28;;;6.70;99.90;;;;;;4994402;28;20354;-79
2023/01/14 03:20:32;;;;;;;21.00;2.75;;;6.70;99.90;;;;;;5079170;28;20146;-79
2023/01/14 03:23:03;;;;;;;21.60;3.05;;;6.60;99.90;;;;;;5107716;28;20112;-79
2023/01/14 03:25:32;;;;;;;19.85;2.97;;;7.30;99.90;;;;;;5092654;28;20392;-79
2023/01/14 03:28:00;;;;;;;18.58;2.78;;;6.60;99.90;;;;;;5108562;28;20036;-79
2023/01/14 03:30:29;;;;;;;18.38;3.17;;;6.60;99.90;;;;;;5108583;28;20088;-79
2023/01/14 03:32:58;;;;;;;18.55;2.30;;;6.60;99.90;;;;;;5110002;28;20516;-78
2023/01/14 03:35:38;;;;;;;23.85;2.60;;;6.70;99.90;;;;;;5106957;28;20075;-79
2023/01/14 03:38:10;;;;;;;20.83;2.38;;;6.70;99.90;;;;;;5110000;28;20440;-79
2023/01/14 03:40:39;;;;;;;17.70;2.47;;;6.60;99.90;;;;;;5108098;28;20065;-78
2023/01/14 03:43:27;;;;;;;17.83;2.53;;;6.50;99.90;;;;;;5091579;28;20054;-79
2023/01/14 03:45:54;;;;;;;23.67;3.00;;;6.40;99.90;;;;;;5092519;28;20043;-79
2023/01/14 03:48:20;;;;;;;18.38;2.38;;;6.40;99.90;;;;;;5090151;28;20402;-79
2023/01/14 03:50:55;;;;;;;18.42;3.20;;;6.60;99.90;;;;;;5109328;28;20040;-79
2023/01/14 03:53:29;;;;;;;27.33;3.55;;;6.30;99.90;;;;;;5107200;28;20117;-79
2023/01/14 03:55:55;;;;;;;29.52;3.03;;;6.30;99.90;;;;;;5091140;28;20060;-79
2023/01/14 03:58:45;;;;;;;16.15;1.95;;;6.30;99.90;;;;;;5109001;28;20063;-79
2023/01/14 04:01:18;;;;;;;24.38;2.95;;;6.20;99.90;;;;;;5089364;28;20494;-79
2023/01/14 04:03:44;;;;;;;18.67;2.53;;;6.10;99.90;;;;;;5109837;28;20043;-79
2023/01/14 04:06:12;;;;;;;19.88;2.20;;;6.10;99.90;;;;;;5107063;28;20052;-79
2023/01/14 04:08:38;;;;;;;20.27;2.60;;;6.90;99.90;;;;;;5091800;28;20047;-79
2023/01/14 04:11:03;;;;;;;29.45;2.78;;;6.10;99.90;;;;;;5092055;28;20042;-78
2023/01/14 04:16:13;;;;;;;29.15;2.47;;;6.10;99.90;;;;;;5108906;28;20096;-79
2023/01/14 04:18:42;;;;;;;19.83;2.90;;;6.00;99.90;;;;;;5106173;28;20044;-79
2023/01/14 04:21:08;;;;;;;18.13;2.75;;;6.00;99.90;;;;;;5091919;28;20106;-79
2023/01/14 04:23:33;;;;;;;17.52;2.60;;;6.90;99.90;;;;;;5090728;28;20079;-79
2023/01/14 04:26:00;;;;;;;24.67;3.17;;;6.00;99.90;;;;;;5107820;28;20203;-79
2023/01/14 04:28:27;;;;;;;15.02;2.00;;;6.00;99.90;;;;;;5108955;28;20043;-79
2023/01/14 04:30:53;;;;;;;24.20;4.00;;;6.00;99.90;;;;;;5106953;28;20047;-79
2023/01/14 04:33:20;;;;;;;27.65;3.00;;;6.40;99.90;;;;;;5091537;28;20510;-80
2023/01/14 04:35:50;;;;;;;20.60;2.90;;;6.00;99.90;;;;;;5106124;28;20126;-79
2023/01/14 04:38:19;;;;;;;22.92;2.88;;;6.00;99.90;;;;;;5107564;28;20048;-79
2023/01/14 04:40:45;;;;;;;21.13;1.95;;;5.90;99.90;;;;;;5090486;28;20439;-79
2023/01/14 04:43:11;;;;;;;26.70;3.50;;;5.90;99.90;;;;;;5073060;28;20049;-80
2023/01/14 04:45:37;;;;;;;16.33;2.40;;;5.90;99.90;;;;;;5091584;28;20043;-79
2023/01/14 04:48:03;;;;;;;31.83;4.07;;;5.90;99.90;;;;;;5088457;28;20051;-80
2023/01/14 04:50:32;;;;;;;19.55;2.45;;;5.90;99.90;;;;;;5108762;28;20040;-80
2023/01/14 04:53:13;;;;;;;23.02;2.65;;;5.90;99.90;;;;;;5088924;28;20520;-79
2023/01/14 04:55:40;;;;;;;31.92;3.72;;;5.90;99.90;;;;;;5090603;28;20055;-80
2023/01/14 04:58:10;;;;;;;16.63;3.40;;;6.10;99.90;;;;;;5107531;28;20057;-80
2023/01/14 05:00:37;;;;;;;22.30;3.58;;;5.90;99.90;;;;;;5088742;28;20051;-80
2023/01/14 05:03:08;;;;;;;23.45;2.88;;;5.90;99.90;;;;;;5091088;28;20048;-78
2023/01/14 05:05:35;;;;;;;19.40;2.88;;;5.90;99.90;;;;;;5105063;28;20043;-79
2023/01/14 05:08:03;;;;;;;14.63;2.47;;;5.90;99.90;;;;;;5109624;28;20071;-79
2023/01/14 05:10:29;;;;;;;13.45;1.90;;;6.40;99.90;;;;;;5106147;28;20502;-80
2023/01/14 05:12:58;;;;;;;16.35;3.00;;;5.90;99.90;;;;;;5074165;28;20056;-79
2023/01/14 05:15:27;;;;;;;18.80;2.55;;;5.90;99.90;;;;;;5091299;28;20122;-79
2023/01/14 05:17:53;;;;;;;22.00;2.30;;;5.80;99.90;;;;;;5088691;28;20047;-79
2023/01/14 05:20:20;;;;;;;15.43;1.98;;;6.20;99.90;;;;;;5074065;28;20043;-80
2023/01/14 05:22:45;;;;;;;23.60;3.03;;;6.20;99.90;;;;;;5087981;28;20083;-79
2023/01/14 05:25:11;;;;;;;21.20;2.25;;;5.90;99.90;;;;;;5091187;28;20091;-79
2023/01/14 05:27:37;;;;;;;18.80;3.53;;;5.90;99.90;;;;;;5088462;28;20077;-80
2023/01/14 05:30:04;;;;;;;14.88;2.45;;;5.90;99.90;;;;;;5090312;28;20043;-79
2023/01/14 05:32:30;;;;;;;20.30;2.42;;;5.90;99.90;;;;;;5107163;28;20039;-79
2023/01/14 05:34:55;;;;;;;25.92;3.22;;;6.70;99.90;;;;;;5088141;28;20051;-79
2023/01/14 05:37:21;;;;;;;27.98;2.40;;;6.80;99.90;;;;;;5090594;28;20048;-80
2023/01/14 05:39:47;;;;;;;18.80;2.88;;;6.90;99.90;;;;;;5088060;28;20176;-79
2023/01/14 05:47:41;;;;;;;19.45;2.97;;;6.50;99.90;;;;;;5090829;28;20116;-79
2023/01/14 05:50:10;;;;;;;23.83;2.83;;;6.00;99.90;;;;;;5107122;28;20036;-80
2023/01/14 05:52:36;;;;;;;17.33;1.65;;;5.80;99.90;;;;;;5088072;28;20398;-79
2023/01/14 05:55:01;;;;;;;19.60;2.50;;;5.80;99.90;;;;;;5089821;28;20059;-79
2023/01/14 05:57:27;;;;;;;19.60;2.13;;;5.80;99.90;;;;;;5071705;28;20132;-80
2023/01/14 05:59:53;;;;;;;20.17;2.42;;;5.80;99.90;;;;;;5056671;28;20035;-80
2023/01/14 06:07:47;;;;;;;14.02;2.25;;;5.90;99.90;;;;;;5093067;28;20047;-80
2023/01/14 06:10:13;;;;;;;19.80;2.53;;;5.90;99.90;;;;;;5087690;28;20406;-81
2023/01/14 06:15:29;;;;;;;19.10;2.45;;;5.90;99.90;;;;;;5106639;28;20051;-80
2023/01/14 06:18:08;;;;;;;19.08;2.42;;;5.90;99.90;;;;;;5088470;28;20046;-80
2023/01/14 06:20:36;;;;;;;15.73;2.53;;;5.90;99.90;;;;;;5092187;28;20043;-81
2023/01/14 06:23:05;;;;;;;15.02;3.33;;;5.90;99.90;;;;;;5087580;28;20044;-81
2023/01/14 06:25:32;;;;;;;16.90;2.65;;;5.90;99.90;;;;;;5107042;28;20050;-81
2023/01/14 06:28:00;;;;;;;19.10;4.90;;;5.90;99.90;;;;;;5072476;28;20131;-81
2023/01/14 06:30:26;;;;;;;23.00;3.47;;;5.90;99.90;;;;;;5105103;28;20130;-81
2023/01/14 06:32:53;;;;;;;20.38;2.83;;;5.90;99.90;;;;;;5090610;28;20059;-81
2023/01/14 06:35:18;;;;;;;24.23;3.65;;;7.10;99.90;;;;;;5104468;28;20043;-80
2023/01/14 06:37:45;;;;;;;12.88;3.20;;;5.90;99.90;;;;;;5107383;28;20085;-81
2023/01/14 06:40:12;;;;;;;29.73;5.07;;;5.90;99.90;;;;;;5104733;28;20560;-81
2023/01/14 06:42:40;;;;;;;22.02;2.88;;;5.90;99.90;;;;;;5107051;28;20484;-81
2023/01/14 06:45:09;;;;;;;20.85;3.67;;;5.90;99.90;;;;;;5105864;28;20043;-80
2023/01/14 06:47:36;;;;;;;17.00;3.08;;;5.90;99.90;;;;;;5105008;28;20562;-81
2023/01/14 06:50:05;;;;;;;22.60;3.40;;;5.90;99.90;;;;;;5090125;28;20087;-80
2023/01/14 06:52:31;;;;;;;32.55;5.07;;;5.90;99.90;;;;;;5104105;28;20047;-81
2023/01/14 06:54:58;;;;;;;16.95;2.92;;;6.40;99.90;;;;;;5106472;28;20085;-80
2023/01/14 06:57:24;;;;;;;32.35;6.80;;;5.90;99.90;;;;;;5104608;28;20047;-81
2023/01/14 06:59:51;;;;;;;20.45;3.67;;;6.30;99.90;;;;;;5089669;28;20043;-80
2023/01/14 07:02:16;;;;;;;25.08;3.88;;;5.90;99.90;;;;;;5091549;28;20521;-80
2023/01/14 07:04:43;;;;;;;23.40;3.80;;;5.90;99.90;;;;;;5108789;28;20048;-82
2023/01/14 07:07:10;;;;;;;25.23;4.55;;;5.90;99.90;;;;;;5110539;28;20529;-80
2023/01/14 07:09:36;;;;;;;30.05;6.05;;;7.20;99.90;;;;;;5091018;28;20064;-80
2023/01/14 07:12:02;;;;;;;27.60;7.03;;;5.90;99.90;;;;;;5110674;28;20047;-80
2023/01/14 07:14:28;;;;;;;22.38;4.82;;;5.90;99.90;;;;;;5091269;28;20122;-80
2023/01/14 07:16:53;;;;;;;19.35;3.83;;;5.80;99.90;;;;;;5076037;28;20118;-81
2023/01/14 07:19:19;;;;;;;25.38;5.13;;;5.90;99.90;;;;;;5092251;28;20077;-80
2023/01/14 07:21:45;;;;;;;31.30;4.90;;;5.90;99.90;;;;;;5091946;28;20075;-81
2023/01/14 07:24:11;;;;;;;29.67;6.15;;;6.50;99.90;;;;;;5093523;28;20047;-81
2023/01/14 07:26:37;;;;;;;18.13;3.75;;;5.90;99.90;;;;;;5090360;28;20047;-79
2023/01/14 07:29:03;;;;;;;21.98;4.78;;;6.00;99.90;;;;;;5093166;28;20131;-80
2023/01/14 07:31:29;;;;;;;22.77;5.30;;;6.80;99.90;;;;;;5107193;28;20043;-80
2023/01/14 07:33:54;;;;;;;32.33;4.97;;;6.10;99.90;;;;;;5092522;28;20044;-80
2023/01/14 07:36:20;;;;;;;23.52;4.53;;;6.00;99.90;;;;;;5108289;28;20047;-79
2023/01/14 07:38:46;;;;;;;36.42;5.80;;;6.00;99.90;;;;;;5091313;28;20067;-79
2023/01/14 07:41:13;;;;;;;27.00;4.40;;;6.10;99.90;;;;;;5075957;28;20043;-79
2023/01/14 07:43:39;;;;;;;24.95;3.80;;;6.10;99.90;;;;;;5107014;28;20039;-79
2023/01/14 07:46:07;;;;;;;34.80;4.75;;;6.20;99.90;;;;;;5111117;28;20035;-79
2023/01/14 07:48:33;;;;;;;32.15;4.53;;;6.10;99.90;;;;;;5107320;28;20402;-79
2023/01/14 07:51:03;;;;;;;28.88;5.13;;;7.00;99.90;;;;;;5109196;28;20047;-80
2023/01/14 07:53:28;;;;;;;29.23;4.05;;;6.50;99.90;;;;;;5108073;28;20123;-80
2023/01/14 07:55:54;;;;;;;24.50;5.32;;;6.10;99.90;;;;;;5091009;28;20135;-80
2023/01/14 07:58:23;;;;;;;21.70;4.18;;;6.10;99.90;;;;;;5109235;28;20048;-80
2023/01/14 08:00:49;;;;;;;22.05;4.45;;;6.10;99.90;;;;;;5106470;28;20235;-80
2023/01/14 08:03:15;;;;;;;35.97;5.60;;;6.20;99.90;;;;;;5109250;28;20202;-79
2023/01/14 08:05:41;;;;;;;24.85;4.72;;;6.20;99.90;;;;;;5106859;28;20331;-80
2023/01/14 08:08:06;;;;;;;29.35;5.47;;;7.40;99.90;;;;;;5109633;28;20486;-80
2023/01/14 08:10:32;;;;;;;24.75;4.50;;;6.20;99.90;;;;;;5107545;28;20522;-80
2023/01/14 08:12:58;;;;;;;24.40;4.13;;;7.30;99.90;;;;;;5108134;28;20044;-81
2023/01/14 08:15:24;;;;;;;27.67;4.60;;;6.30;99.90;;;;;;5108630;28;20410;-80
2023/01/14 08:17:50;;;;;;;23.33;3.78;;;6.30;99.90;;;;;;5089443;28;20047;-81
2023/01/14 08:20:22;;;;;;;25.63;3.50;;;7.20;99.90;;;;;;5091966;28;20043;-80
2023/01/14 08:22:48;;;;;;;28.95;4.78;;;6.30;99.90;;;;;;5106778;28;20039;-81
2023/01/14 08:25:13;;;;;;;22.83;4.43;;;6.40;99.90;;;;;;5108913;28;20043;-81
2023/01/14 08:27:39;;;;;;;23.35;4.38;;;6.30;99.90;;;;;;5107220;28;20067;-81
2023/01/14 08:30:06;;;;;;;31.95;5.03;;;6.30;99.90;;;;;;5090343;28;20130;-81
2023/01/14 08:32:32;;;;;;;28.10;5.15;;;6.40;99.90;;;;;;5108511;28;20138;-81
2023/01/14 08:34:57;;;;;;;23.38;3.75;;;6.40;99.90;;;;;;5089331;28;20519;-81
2023/01/14 08:37:23;;;;;;;31.17;4.38;;;6.40;99.90;;;;;;5108686;28;20039;-81
2023/01/14 08:39:49;;;;;;;32.70;4.88;;;6.40;99.90;;;;;;5089521;28;20081;-81
2023/01/14 08:42:14;;;;;;;27.42;3.78;;;6.50;99.90;;;;;;5108898;28;20513;-81
2023/01/14 08:44:40;;;;;;;34.95;4.60;;;6.40;99.90;;;;;;5107722;28;20047;-82
2023/01/14 08:47:06;;;;;;;32.60;4.20;;;6.40;99.90;;;;;;5074233;28;20047;-81
2023/01/14 08:49:32;;;;;;;31.73;4.78;;;6.40;99.90;;;;;;5091602;28;20502;-83
2023/01/14 08:51:59;;;;;;;27.88;4.90;;;6.40;99.90;;;;;;5071801;28;20079;-83
2023/01/14 08:54:24;;;;;;;22.40;3.50;;;6.40;99.90;;;;;;5090918;28;20067;-81
2023/01/14 08:56:53;;;;;;;24.38;4.00;;;7.00;99.90;;;;;;5105464;28;20051;-81
2023/01/14 08:59:18;;;;;;;20.38;3.90;;;6.40;99.90;;;;;;5108019;28;20515;-82
2023/01/14 09:01:44;;;;;;;28.17;3.78;;;6.40;99.90;;;;;;5056028;28;20039;-82
2023/01/14 09:04:10;;;;;;;21.95;3.85;;;6.40;99.90;;;;;;5057007;28;20044;-82
2023/01/14 09:17:04;;;;;;;25.90;4.10;;;6.40;99.90;;;;;;5090327;28;20096;-82
2023/01/14 09:17:39;;;;;;;21.00;4.60;;;6.40;99.90;;;;;;5091357;28;20135;-81
2023/01/14 09:20:10;;;;;;;27.13;3.67;;;6.50;99.90;;;;;;5107832;28;20379;-81
2023/01/14 09:22:36;;;;;;;14.93;2.90;;;6.40;99.90;;;;;;5087933;28;20081;-85
2023/01/14 09:25:02;;;;;;;18.92;3.53;;;6.30;99.90;;;;;;5090516;28;20039;-81
2023/01/14 09:27:30;;;;;;;23.70;3.92;;;6.40;99.90;;;;;;5105989;28;20091;-82
2023/01/14 09:29:55;;;;;;;23.38;3.83;;;7.30;99.90;;;;;;5090363;28;20202;-82
2023/01/14 09:32:21;;;;;;;22.38;4.32;;;6.30;99.90;;;;;;5107027;28;20422;-82
2023/01/14 09:34:49;;;;;;;19.55;3.03;;;7.50;99.90;;;;;;5071389;28;20140;-82
2023/01/14 09:37:19;;;;;;;14.98;3.20;;;6.30;99.90;;;;;;5090877;28;20058;-83
2023/01/14 09:39:45;;;;;;;18.20;3.58;;;6.30;99.90;;;;;;5088474;28;20043;-84
2023/01/14 09:42:33;;;;;;;17.40;3.00;;;7.40;99.90;;;;;;5107664;28;20096;-82
2023/01/14 09:45:13;;;;;;;16.25;3.65;;;6.30;99.90;;;;;;5089286;28;20502;-81
2023/01/14 09:47:40;;;;;;;24.73;3.15;;;6.30;99.90;;;;;;5105175;28;20061;-83
2023/01/14 09:50:13;;;;;;;22.15;3.17;;;6.30;99.90;;;;;;5090285;28;20043;-83
2023/01/14 09:53:03;;;;;;;14.43;2.53;;;6.30;99.90;;;;;;5104438;28;20054;-83
2023/01/14 09:55:39;;;;;;;27.83;3.00;;;6.30;99.90;;;;;;5106525;28;20068;-83
2023/01/14 09:58:13;;;;;;;17.80;2.53;;;6.30;99.90;;;;;;5089771;28;20379;-84
2023/01/14 10:00:56;;;;;;;12.82;2.80;;;6.30;99.90;;;;;;5087821;28;20092;-83
2023/01/14 10:04:04;;;;;;;14.27;2.53;;;6.30;99.90;;;;;;5090230;28;20090;-83
2023/01/14 10:06:29;;;;;;;15.05;2.88;;;6.30;99.90;;;;;;5089011;28;20040;-82
2023/01/14 10:09:03;;;;;;;11.05;2.30;;;6.30;99.90;;;;;;5105425;28;20104;-83
2023/01/14 10:11:32;;;;;;;13.70;2.17;;;7.10;99.90;;;;;;5106813;28;20040;-83
2023/01/14 10:14:19;;;;;;;10.30;1.85;;;7.20;99.90;;;;;;5086947;28;20130;-84
2023/01/14 10:16:48;;;;;;;8.88;2.20;;;6.40;99.90;;;;;;5090129;28;20543;-83
2023/01/14 10:19:22;;;;;;;9.35;1.70;;;6.40;99.90;;;;;;5104946;28;20543;-83
2023/01/14 10:21:58;;;;;;;9.13;1.23;;;7.10;99.90;;;;;;5088778;28;20047;-82
2023/01/14 10:24:24;;;;;;;10.00;2.10;;;7.80;99.90;;;;;;5106947;28;20118;-82
2023/01/14 10:26:50;;;;;;;10.93;1.80;;;6.50;99.90;;;;;;5070361;28;20122;-82
2023/01/14 10:29:19;;;;;;;7.20;1.73;;;6.50;99.90;;;;;;5107102;28;20490;-82
2023/01/14 10:31:53;;;;;;;13.25;1.80;;;6.50;99.90;;;;;;5104774;28;20469;-82
2023/01/14 10:34:26;;;;;;;14.45;1.45;;;6.60;99.90;;;;;;5107012;28;20559;-82
2023/01/14 10:36:55;;;;;;;9.05;1.85;;;6.60;99.90;;;;;;5108213;28;20039;-82
2023/01/14 10:39:21;;;;;;;5.95;1.10;;;6.60;99.90;;;;;;5108863;28;20043;-83
2023/01/14 10:41:50;;;;;;;3.50;1.00;;;6.70;99.90;;;;;;5094246;28;20043;-83
2023/01/14 10:44:22;;;;;;;10.20;1.50;;;7.40;99.90;;;;;;5091443;28;20101;-82
2023/01/14 10:46:49;;;;;;;4.10;1.15;;;6.70;99.90;;;;;;5111086;28;20050;-84
2023/01/14 10:49:30;;;;;;;5.07;1.42;;;6.80;99.90;;;;;;5091822;28;20039;-82
2023/01/14 10:51:57;;;;;;;3.88;0.95;;;6.80;99.90;;;;;;5110394;28;20494;-82
2023/01/14 10:54:27;;;;;;;6.28;0.93;;;6.80;99.90;;;;;;5076911;28;20526;-83
2023/01/14 10:56:55;;;;;;;6.85;0.95;;;7.90;99.90;;;;;;5108656;28;20376;-83
2023/01/14 10:59:57;;;;;;;6.18;1.33;;;7.00;99.90;;;;;;5110358;28;20085;-82
2023/01/14 11:02:33;;;;;;;5.18;1.20;;;7.40;99.90;;;;;;5091031;28;20047;-82
2023/01/14 11:04:59;;;;;;;8.15;1.20;;;7.00;99.90;;;;;;5091673;28;20043;-85
2023/01/14 11:07:38;;;;;;;6.13;1.20;;;7.10;99.90;;;;;;5076893;28;20402;-83
2023/01/14 11:10:21;;;;;;;4.28;1.08;;;7.20;99.90;;;;;;5107363;28;20050;-82
2023/01/14 11:12:46;;;;;;;2.15;0.55;;;7.10;99.90;;;;;;5093066;28;20058;-82
2023/01/14 11:15:38;;;;;;;4.80;1.25;;;7.10;99.90;;;;;;5107815;28;20047;-81
2023/01/14 11:18:19;;;;;;;2.83;1.55;;;7.10;99.90;;;;;;5107970;28;20130;-82
2023/01/14 11:21:15;;;;;;;4.93;1.00;;;7.20;99.90;;;;;;5092969;28;20494;-80
2023/01/14 11:23:52;;;;;;;2.40;0.82;;;7.20;99.90;;;;;;5091144;28;20044;-80
2023/01/14 11:26:30;;;;;;;5.28;0.90;;;7.20;99.90;;;;;;5108915;28;20405;-80
2023/01/14 11:29:08;;;;;;;3.30;0.88;;;7.20;99.90;;;;;;5110089;28;20052;-81
2023/01/14 11:31:38;;;;;;;7.57;0.80;;;7.10;99.90;;;;;;5089638;28;20051;-82
2023/01/14 11:34:08;;;;;;;2.88;0.90;;;7.40;99.90;;;;;;5092614;28;20054;-82
2023/01/14 11:36:34;;;;;;;3.08;0.75;;;7.00;99.90;;;;;;5091316;28;20203;-82
2023/01/14 11:39:01;;;;;;;3.50;0.63;;;7.20;99.90;;;;;;5092543;28;20437;-83
2023/01/14 11:41:39;;;;;;;3.72;0.90;;;7.20;99.90;;;;;;5092536;28;20530;-81
2023/01/14 11:44:23;;;;;;;5.07;0.82;;;7.30;99.90;;;;;;5107035;28;20096;-83
2023/01/14 11:47:12;;;;;;;4.47;0.52;;;7.50;99.90;;;;;;5075495;28;20047;-81
2023/01/14 11:49:38;;;;;;;2.03;0.77;;;7.20;99.90;;;;;;5108714;28;20583;-81
2023/01/14 11:52:15;;;;;;;4.20;1.02;;;7.20;99.90;;;;;;5108462;28;20048;-84
2023/01/14 11:54:47;;;;;;;5.03;1.00;;;7.20;99.90;;;;;;5093438;28;20052;-81
2023/01/14 11:57:17;;;;;;;2.60;0.88;;;8.20;99.90;;;;;;5106690;28;20047;-83
2023/01/14 11:59:44;;;;;;;3.70;1.10;;;7.20;99.90;;;;;;5108317;28;20455;-81
2023/01/14 12:02:30;;;;;;;4.50;0.80;;;7.20;99.90;;;;;;5088272;28;20122;-82
2023/01/14 12:05:13;;;;;;;5.90;1.20;;;7.20;99.90;;;;;;5107478;28;20092;-82
2023/01/14 12:07:44;;;;;;;3.08;0.70;;;7.30;99.90;;;;;;5107569;28;20083;-82
2023/01/14 12:10:32;;;;;;;1.80;0.57;;;7.30;99.90;;;;;;5104945;28;20201;-81
2023/01/14 12:19:33;;;;;;;1.13;0.70;;;7.30;99.90;;;;;;5104754;28;20131;-82
2023/01/14 12:22:21;;;;;;;6.07;0.73;;;7.30;99.90;;;;;;5106993;28;20055;-82
2023/01/14 12:25:13;;;;;;;3.40;0.90;;;7.30;99.90;;;;;;5108387;28;20040;-82
2023/01/14 12:28:13;;;;;;;4.97;0.93;;;7.30;99.90;;;;;;5105133;28;20035;-83
2023/01/14 12:30:59;;;;;;;5.75;0.82;;;7.40;99.90;;;;;;5099310;28;20100;-81
2023/01/14 12:33:36;;;;;;;4.45;0.73;;;8.10;99.90;;;;;;5090461;28;20077;-84
2023/01/14 12:36:14;;;;;;;3.92;0.60;;;7.40;99.90;;;;;;5087387;28;20050;-81
2023/01/14 12:47:43;;;;;;;;;;;7.60;99.90;;;;;;5107858;28;20039;-83
2023/01/14 12:50:12;;;;;;;1.55;0.50;;;7.60;99.90;;;;;;5106142;28;20100;-82
2023/01/14 12:52:45;;;;;;;2.65;0.40;;;7.60;99.90;;;;;;5105403;28;20024;-82
2023/01/14 12:55:23;;;;;;;2.22;0.50;;;7.70;99.90;;;;;;5107043;28;20048;-81
2023/01/14 12:57:52;;;;;;;2.28;0.60;;;7.70;99.90;;;;;;5106298;28;20105;-83
2023/01/14 13:00:23;;;;;;;3.47;0.55;;;7.10;99.90;;;;;;5090248;28;20135;-83
2023/01/14 13:02:54;;;;;;;2.85;0.45;;;7.70;99.90;;;;;;5106042;28;20043;-83
2023/01/14 13:05:41;;;;;;;3.47;0.70;;;7.80;99.90;;;;;;5089191;28;20044;-83
2023/01/14 13:08:25;;;;;;;1.65;0.47;;;7.80;99.90;;;;;;5107100;28;20537;-83
2023/01/14 13:11:23;;;;;;;1.35;0.50;;;7.90;99.90;;;;;;5104768;28;20486;-83
2023/01/14 13:13:52;;;;;;;3.00;0.40;;;7.90;99.90;;;;;;5106655;28;20242;-84
2023/01/14 13:16:45;;;;;;;2.70;0.73;;;8.00;99.90;;;;;;5108309;28;20504;-83
2023/01/14 13:19:47;;;;;;;3.55;0.65;;;8.70;99.90;;;;;;5080990;28;20054;-83
2023/01/14 13:22:43;;;;;;;3.13;0.50;;;8.00;99.90;;;;;;5088864;28;20048;-82
2023/01/14 13:25:17;;;;;;;0.60;0.40;;;8.10;99.90;;;;;;5106925;28;20051;-84
2023/01/14 13:27:43;;;;;;;0.85;0.30;;;8.20;99.90;;;;;;5105188;28;20069;-84
2023/01/14 13:30:18;;;;;;;0.45;0.25;;;8.20;99.90;;;;;;5089202;28;20092;-85
2023/01/14 13:32:59;;;;;;;1.45;0.38;;;8.20;99.90;;;;;;5104147;28;20130;-84
2023/01/14 13:35:28;;;;;;;0.70;0.40;;;8.30;99.90;;;;;;5104300;28;20402;-82
2023/01/14 13:37:55;;;;;;;3.10;0.40;;;8.30;99.90;;;;;;5106189;28;20046;-84
2023/01/14 13:40:33;;;;;;;0.75;0.30;;;8.40;99.90;;;;;;5070274;28;20248;-84
2023/01/14 13:43:06;;;;;;;1.67;0.60;;;8.40;99.90;;;;;;5089117;28;20104;-84
2023/01/14 13:45:38;;;;;;;0.50;0.30;;;8.50;99.90;;;;;;5104179;28;20501;-82
2023/01/14 13:48:21;;;;;;;1.38;0.60;;;8.50;99.90;;;;;;5106587;28;20043;-80
2023/01/14 13:50:47;;;;;;;1.20;0.45;;;8.60;99.90;;;;;;5089124;28;20165;-79
2023/01/14 13:53:15;;;;;;;1.33;0.45;;;8.60;99.90;;;;;;5053190;28;20063;-80
2023/01/14 13:55:56;;;;;;;2.70;0.70;;;8.60;99.90;;;;;;5105481;28;20135;-79